Aeroporto :
LOGIN :

Iscrizione | Disclaimer

   EN    FR    IT 

 










Sommario :    VFR   VFR Marginale   IFR   IFR Intensivo   IFR Molto Intensivo
Visibilità : 
Base nubi : 
>= 8 km
>= 3000ft
5 / 8 km
1000 / 3000 ft
1500m / 5 km
500 / 1000 ft
800 / 1500m
200 / 500 ft
< 800m
< 200 ft
Simboli :   Temporali  Nebbia  Neve Forte  Precipitazioni Forti  Vento > 20 kt
SIGMETs :   Varie  Temporali  Ghiacco  Turbolenza  Onda orograficha  Ceneri Vulcaniche






- Altitudine del aeroporto : 203 ft
- Codice IATA : XMJ


LFBM - Mont-De-Marsan

ULTIMO METAR :
  • 271530Z AUTO 28010KT 9999 FEW039 OVC050 18/10 Q1023 NOSIG

METARs OBSOLETI :
  • 271500Z AUTO 29007KT 260V330 9999 FEW037 SCT043 OVC054 19/09 Q1023 NOSIG
  • 271430Z AUTO 30007KT 260V330 9999 BKN039 OVC052 18/11 Q1023 NOSIG
  • 271400Z AUTO 30005KT 250V330 9999 BKN039 OVC049 18/11 Q1023
  • 271330Z AUTO 31005KT 270V010 9999 SCT037 OVC048 18/11 Q1023 NOSIG
  • 271300Z AUTO 31006KT 270V340 9999 OVC048 18/10 Q1023 NOSIG
  • 271230Z AUTO 28007KT CAVOK 17/10 Q1023 NOSIG
  • 271200Z AUTO 30006KT 9999 BKN029 OVC049 17/11 Q1023 NOSIG
  • 271130Z AUTO 31004KT 270V350 9999 FEW025 OVC048 17/11 Q1023 NOSIG
  • 271100Z AUTO VRB03KT 9999 FEW024 OVC048 17/12 Q1023 NOSIG

TAF TAF LFBM
Valido dal 27 a 15 ore il 28 a 15 ore UTC


271400Z 2715/2815 32004KT 9999 SCT040



MetMap, La meteo Aeronautica in un colpo d'occhio ! - Copyright ORBIFLY Dicembre 2007 - Disclaimer

ORBIFLY MET'MAP TEAM :

Programmazione e sviluppo : Alexandra Zaïnal
Concezione : Baudouin d'Aumeries
Supporto tecnico e logistico : Manuel Goepfert
Aiuto : Marc-Olivier Méhu
Aiuto per la traduzione : Arnaldo La Scala




FONTI E CREDITI :

   NOAA